createdAt,value
2022-09-21T00:00:42.967Z,80.20
2022-09-21T00:03:28.388Z,80.06
2022-09-21T00:06:17.966Z,80.23
2022-09-21T00:09:05.086Z,80.26
2022-09-21T00:11:53.275Z,80.10
2022-09-21T00:14:42.893Z,79.85
2022-09-21T00:17:29.058Z,80.31
2022-09-21T00:20:15.287Z,80.23
2022-09-21T00:23:00.538Z,80.22
2022-09-21T00:25:45.843Z,80.20
2022-09-21T00:28:31.331Z,80.15
2022-09-21T00:31:18.833Z,80.14
2022-09-21T00:34:07.705Z,80.04
2022-09-21T00:36:53.201Z,80.03
2022-09-21T00:39:38.891Z,80.37
2022-09-21T00:42:30.758Z,79.84
2022-09-21T00:45:21.276Z,80.21
2022-09-21T00:48:06.426Z,80.55
2022-09-21T00:50:57.085Z,80.23
2022-09-21T00:53:43.352Z,80.44
2022-09-21T00:56:30.544Z,80.48
2022-09-21T00:59:21.529Z,80.50
2022-09-21T01:02:08.435Z,80.30
2022-09-21T01:04:55.680Z,80.73
2022-09-21T01:07:46.291Z,80.74
2022-09-21T01:11:08.352Z,80.45
2022-09-21T01:14:02.784Z,80.48
2022-09-21T01:17:14.649Z,81.05
2022-09-21T01:20:33.174Z,80.50
2022-09-21T01:23:38.075Z,81.03
2022-09-21T01:26:44.741Z,81.07
2022-09-21T01:29:40.859Z,81.04
2022-09-21T01:32:40.866Z,81.05
2022-09-21T01:35:46.186Z,80.98
2022-09-21T01:38:43.850Z,81.30
2022-09-21T01:41:32.291Z,81.33
2022-09-21T01:44:21.454Z,81.25
2022-09-21T01:47:10.665Z,81.57
2022-09-21T01:49:59.735Z,81.50
2022-09-21T01:52:59.414Z,81.69
2022-09-21T01:55:55.389Z,81.36
2022-09-21T01:59:06.447Z,81.19
2022-09-21T02:01:56.302Z,81.65
2022-09-21T02:04:41.734Z,81.70
2022-09-21T02:07:28.079Z,81.42
2022-09-21T02:10:21.831Z,81.35
2022-09-21T02:13:09.697Z,81.25
2022-09-21T02:16:21.652Z,81.52
2022-09-21T02:19:36.051Z,81.41
2022-09-21T02:22:39.168Z,81.11
2022-09-21T02:25:59.297Z,81.26
2022-09-21T02:28:55.833Z,81.06
2022-09-21T02:31:55.662Z,81.78
2022-09-21T02:34:49.450Z,81.49
2022-09-21T02:37:56.788Z,81.24
2022-09-21T02:41:27.355Z,81.63
2022-09-21T02:44:20.827Z,81.33
2022-09-21T02:47:25.342Z,81.67
2022-09-21T02:50:20.252Z,81.74
2022-09-21T02:53:08.440Z,81.87
2022-09-21T02:55:56.647Z,81.55
2022-09-21T02:58:49.835Z,81.93
2022-09-21T03:01:36.403Z,82.09
2022-09-21T03:04:23.176Z,81.96
2022-09-21T03:07:09.500Z,82.18
2022-09-21T03:09:54.889Z,81.83
2022-09-21T03:12:40.246Z,81.97
2022-09-21T03:15:27.415Z,81.58
2022-09-21T03:18:13.801Z,81.81
2022-09-21T03:20:59.487Z,81.93
2022-09-21T03:23:44.930Z,81.77
2022-09-21T03:26:30.264Z,81.80
2022-09-21T03:29:15.556Z,81.88
2022-09-21T03:32:01.182Z,82.16
2022-09-21T03:37:32.343Z,81.71
2022-09-21T03:40:17.947Z,81.71
2022-09-21T03:43:03.632Z,81.86
2022-09-21T03:45:49.471Z,82.05
2022-09-21T03:48:34.857Z,81.95
2022-09-21T03:51:20.364Z,82.44
2022-09-21T03:54:05.750Z,81.95
2022-09-21T03:56:50.976Z,82.36
2022-09-21T03:59:36.513Z,82.35
2022-09-21T04:02:22.593Z,82.67
2022-09-21T04:05:10.151Z,82.65
2022-09-21T04:07:56.937Z,82.63
2022-09-21T04:10:43.279Z,82.73
2022-09-21T04:13:28.866Z,82.76
2022-09-21T04:16:14.255Z,83.12
2022-09-21T04:19:00.033Z,83.30
2022-09-21T04:21:45.404Z,82.80
2022-09-21T04:24:31.065Z,82.97
2022-09-21T04:27:16.875Z,83.08
2022-09-21T04:30:02.364Z,82.56
2022-09-21T04:32:47.766Z,83.62
2022-09-21T04:35:33.396Z,83.39
2022-09-21T04:38:18.703Z,83.02
2022-09-21T04:41:04.399Z,83.40
2022-09-21T04:43:50.277Z,83.51
2022-09-21T04:46:35.761Z,83.24
2022-09-21T04:49:21.217Z,83.26
2022-09-21T04:52:06.539Z,83.34
2022-09-21T04:54:52.041Z,83.70
2022-09-21T04:57:37.521Z,83.53
2022-09-21T05:00:23.050Z,83.09
2022-09-21T05:03:08.767Z,83.58
2022-09-21T05:05:57.052Z,83.27
2022-09-21T05:09:01.242Z,83.98
2022-09-21T05:11:46.818Z,83.75
2022-09-21T05:14:32.304Z,84.23
2022-09-21T05:17:17.812Z,84.41
2022-09-21T05:20:03.710Z,84.76
2022-09-21T05:22:49.077Z,84.55
2022-09-21T05:25:34.544Z,84.84
2022-09-21T05:28:20.095Z,84.45
2022-09-21T05:31:18.581Z,84.39
2022-09-21T05:34:36.145Z,84.56
2022-09-21T05:37:42.268Z,84.63
2022-09-21T05:40:28.032Z,84.53
2022-09-21T05:43:14.262Z,84.65
2022-09-21T05:46:09.575Z,84.46
2022-09-21T05:49:02.836Z,84.69
2022-09-21T05:52:06.860Z,84.64
2022-09-21T05:54:58.626Z,84.74
2022-09-21T05:57:43.905Z,84.61
2022-09-21T06:00:42.971Z,84.56
2022-09-21T06:03:29.713Z,84.70
2022-09-21T06:06:17.541Z,84.53
2022-09-21T06:09:03.244Z,84.87
2022-09-21T06:11:49.170Z,84.95
2022-09-21T06:14:34.610Z,85.11
2022-09-21T06:17:20.024Z,84.44
2022-09-21T06:20:07.238Z,84.96
2022-09-21T06:22:52.610Z,84.61
2022-09-21T06:25:38.222Z,85.29
2022-09-21T06:28:23.714Z,84.83
2022-09-21T06:31:09.212Z,84.67
2022-09-21T06:33:54.689Z,85.10
2022-09-21T06:36:39.993Z,85.31
2022-09-21T06:39:25.329Z,85.08
2022-09-21T06:42:10.765Z,85.13
2022-09-21T06:51:44.175Z,84.81
2022-09-21T06:54:29.614Z,85.02
2022-09-21T06:57:15.341Z,85.01
2022-09-21T07:00:01.062Z,84.93
2022-09-21T07:02:46.457Z,85.24
2022-09-21T07:05:33.892Z,85.08
2022-09-21T07:11:25.282Z,84.97
2022-09-21T07:14:11.317Z,85.01
2022-09-21T07:16:56.604Z,84.93
2022-09-21T07:19:42.316Z,84.87
2022-09-21T07:22:34.222Z,85.13
2022-09-21T07:25:19.483Z,84.74
2022-09-21T07:28:04.803Z,84.65
2022-09-21T07:30:50.456Z,84.63
2022-09-21T07:33:36.410Z,84.75
2022-09-21T07:36:21.638Z,84.68
2022-09-21T07:39:09.686Z,84.12
2022-09-21T07:41:55.154Z,84.52
2022-09-21T07:44:41.532Z,84.11
2022-09-21T07:47:27.997Z,84.02
2022-09-21T07:50:13.254Z,84.78
2022-09-21T07:52:59.722Z,84.11
2022-09-21T07:55:45.097Z,84.59
2022-09-21T07:58:49.821Z,84.54
2022-09-21T08:01:40.855Z,84.82
2022-09-21T08:04:26.599Z,84.90
2022-09-21T08:07:12.584Z,84.82
2022-09-21T08:09:57.941Z,84.29
2022-09-21T08:12:44.256Z,84.64
2022-09-21T08:15:48.874Z,84.36
2022-09-21T08:18:40.072Z,84.48
2022-09-21T08:21:25.361Z,84.65
2022-09-21T08:24:10.696Z,84.45
2022-09-21T08:26:56.127Z,84.81
2022-09-21T08:29:42.553Z,84.54
2022-09-21T08:32:50.007Z,84.78
2022-09-21T08:35:33.792Z,85.01
2022-09-21T08:38:19.401Z,84.50
2022-09-21T08:41:52.233Z,84.92
2022-09-21T08:44:55.117Z,84.37
2022-09-21T08:47:43.786Z,84.90
2022-09-21T08:50:35.455Z,84.37
2022-09-21T08:53:45.982Z,84.44
2022-09-21T08:56:47.386Z,83.96
2022-09-21T08:59:39.257Z,83.79
2022-09-21T09:02:38.971Z,84.19
2022-09-21T09:05:27.983Z,83.21
2022-09-21T09:08:35.991Z,83.15
2022-09-21T09:12:00.191Z,83.15
2022-09-21T09:14:39.479Z,82.72
2022-09-21T09:17:53.042Z,82.72
2022-09-21T09:20:44.684Z,82.43
2022-09-21T09:23:41.788Z,81.24
2022-09-21T09:26:45.266Z,81.02
2022-09-21T09:29:40.527Z,80.57
2022-09-21T09:35:28.734Z,79.75
2022-09-21T09:38:37.315Z,79.46
2022-09-21T09:41:39.037Z,79.15
2022-09-21T09:44:39.021Z,78.85
2022-09-21T09:47:54.600Z,78.71
2022-09-21T09:50:42.347Z,78.36
2022-09-21T09:53:28.964Z,77.65
2022-09-21T09:56:15.212Z,77.46
2022-09-21T09:59:08.329Z,76.69
2022-09-21T10:02:02.935Z,76.49
2022-09-21T10:07:48.959Z,74.17
2022-09-21T10:10:41.722Z,73.53
2022-09-21T10:13:33.591Z,72.86
2022-09-21T10:16:23.047Z,72.73
2022-09-21T10:19:17.912Z,72.51
2022-09-21T10:22:05.326Z,71.51
2022-09-21T10:24:54.919Z,71.17
2022-09-21T10:27:45.722Z,71.07
2022-09-21T10:30:38.821Z,70.02
2022-09-21T10:33:24.933Z,70.26
2022-09-21T10:36:27.411Z,69.81
2022-09-21T10:39:26.077Z,69.65
2022-09-21T10:42:13.513Z,69.58
2022-09-21T10:45:18.353Z,69.38
2022-09-21T10:48:16.932Z,68.99
2022-09-21T10:51:04.273Z,67.18
2022-09-21T10:53:53.794Z,68.03
2022-09-21T10:56:52.672Z,68.09
2022-09-21T10:59:38.785Z,67.39
2022-09-21T11:02:29.726Z,66.05
2022-09-21T11:05:22.130Z,66.34
2022-09-21T11:08:41.243Z,64.69
2022-09-21T11:12:02.011Z,65.92
2022-09-21T11:15:04.045Z,65.14
2022-09-21T11:18:22.636Z,65.95
2022-09-21T11:24:21.482Z,65.02
2022-09-21T11:27:19.277Z,63.98
2022-09-21T11:30:13.591Z,61.32
2022-09-21T11:33:33.576Z,64.09
2022-09-21T11:37:00.409Z,62.41
2022-09-21T11:43:08.881Z,60.83
2022-09-21T11:46:26.367Z,62.68
2022-09-21T11:49:15.236Z,62.49
2022-09-21T11:52:36.148Z,63.81
2022-09-21T11:55:46.940Z,63.56
2022-09-21T11:58:50.562Z,63.30
2022-09-21T12:01:55.239Z,63.61
2022-09-21T12:04:50.125Z,59.95
2022-09-21T12:08:04.769Z,61.18
2022-09-21T12:11:14.085Z,61.07
2022-09-21T12:14:16.787Z,61.68
2022-09-21T12:17:08.863Z,61.09
2022-09-21T12:20:20.250Z,61.50
2022-09-21T12:23:16.916Z,61.25
2022-09-21T12:26:05.681Z,61.31
2022-09-21T12:29:14.518Z,59.87
2022-09-21T12:32:21.977Z,60.48
2022-09-21T12:35:14.013Z,58.14
2022-09-21T12:38:06.005Z,59.17
2022-09-21T12:44:13.373Z,61.35
2022-09-21T12:47:10.394Z,61.58
2022-09-21T12:50:15.708Z,60.98
2022-09-21T12:53:01.950Z,61.81
2022-09-21T12:56:09.660Z,60.94
2022-09-21T12:59:07.162Z,60.34
2022-09-21T13:02:20.449Z,60.76
2022-09-21T13:05:30.367Z,60.99
2022-09-21T13:08:36.894Z,61.24
2022-09-21T13:11:23.943Z,59.17
2022-09-21T13:14:13.669Z,59.89
2022-09-21T13:17:03.226Z,59.25
2022-09-21T13:19:59.647Z,59.01
2022-09-21T13:22:49.083Z,59.61
2022-09-21T13:25:38.055Z,60.51
2022-09-21T13:28:42.207Z,60.09
2022-09-21T13:31:42.747Z,60.45
2022-09-21T13:34:32.468Z,60.04
2022-09-21T13:37:18.590Z,60.34
2022-09-21T13:40:04.531Z,60.11
2022-09-21T13:42:50.610Z,60.54
2022-09-21T13:45:37.286Z,60.54
2022-09-21T13:48:29.473Z,60.20
2022-09-21T13:51:17.642Z,60.74
2022-09-21T13:54:05.245Z,60.66
2022-09-21T13:57:15.785Z,60.65
2022-09-21T14:00:13.906Z,59.88
2022-09-21T14:03:04.485Z,60.27
2022-09-21T14:05:54.734Z,60.61
2022-09-21T14:08:50.485Z,60.01
2022-09-21T14:11:40.990Z,59.75
2022-09-21T14:14:38.539Z,60.27
2022-09-21T14:17:37.375Z,60.10
2022-09-21T14:20:38.658Z,60.49
2022-09-21T14:23:29.060Z,60.12
2022-09-21T14:26:33.301Z,59.59
2022-09-21T14:29:39.471Z,59.91
2022-09-21T14:32:28.853Z,59.74
2022-09-21T14:35:22.166Z,59.21
2022-09-21T14:38:23.296Z,59.56
2022-09-21T14:41:17.297Z,57.48
2022-09-21T14:44:04.497Z,58.32
2022-09-21T14:47:10.003Z,54.83
2022-09-21T14:50:30.232Z,54.67
2022-09-21T14:53:46.899Z,54.44
2022-09-21T14:56:54.395Z,55.29
2022-09-21T14:59:59.141Z,55.14
2022-09-21T15:02:45.374Z,55.90
2022-09-21T15:05:44.824Z,55.75
2022-09-21T15:09:11.043Z,57.16
2022-09-21T15:12:11.818Z,56.96
2022-09-21T15:15:26.698Z,56.29
2022-09-21T15:18:22.485Z,57.23
2022-09-21T15:21:43.719Z,57.93
2022-09-21T15:24:34.410Z,57.97
2022-09-21T15:27:26.610Z,57.92
2022-09-21T15:30:22.287Z,57.79
2022-09-21T15:33:14.251Z,57.78
2022-09-21T15:36:01.765Z,57.83
2022-09-21T15:38:50.053Z,58.54
2022-09-21T15:41:49.240Z,58.66
2022-09-21T15:44:37.538Z,59.31
2022-09-21T15:47:26.398Z,59.56
2022-09-21T15:50:14.533Z,60.27
2022-09-21T15:53:06.635Z,60.66
2022-09-21T15:55:53.091Z,60.13
2022-09-21T15:58:40.659Z,61.38
2022-09-21T16:01:27.691Z,60.90
2022-09-21T16:04:22.132Z,60.77
2022-09-21T16:07:27.122Z,61.98
2022-09-21T16:10:31.836Z,62.79
2022-09-21T16:13:45.289Z,63.03
2022-09-21T16:16:31.690Z,63.32
2022-09-21T16:19:18.042Z,63.73
2022-09-21T16:22:05.192Z,64.52
2022-09-21T16:24:55.562Z,65.64
2022-09-21T16:27:54.495Z,65.63
2022-09-21T16:30:47.909Z,66.40
2022-09-21T16:33:44.163Z,66.41
2022-09-21T16:36:32.568Z,67.03
2022-09-21T16:39:19.917Z,67.63
2022-09-21T16:42:06.889Z,67.68
2022-09-21T16:44:52.877Z,67.90
2022-09-21T16:47:39.313Z,67.83
2022-09-21T16:50:26.143Z,68.21
2022-09-21T16:53:12.417Z,67.98
2022-09-21T16:55:58.938Z,67.58
2022-09-21T16:58:46.078Z,67.67
2022-09-21T17:01:32.553Z,67.40
2022-09-21T17:04:22.581Z,67.60
2022-09-21T17:07:13.086Z,67.85
2022-09-21T17:09:59.964Z,67.77
2022-09-21T17:12:46.037Z,68.43
2022-09-21T17:15:33.464Z,69.22
2022-09-21T17:18:19.330Z,69.76
2022-09-21T17:21:05.391Z,69.23
2022-09-21T17:23:52.185Z,69.44
2022-09-21T17:26:38.145Z,69.80
2022-09-21T17:29:27.144Z,69.40
2022-09-21T17:32:14.274Z,69.35
2022-09-21T17:35:32.926Z,69.27
2022-09-21T17:38:18.880Z,69.78
2022-09-21T17:41:16.608Z,69.79
2022-09-21T17:44:16.566Z,70.08
2022-09-21T17:47:16.720Z,69.29
2022-09-21T17:50:20.439Z,69.92
2022-09-21T17:56:32.982Z,69.80
2022-09-21T17:59:28.300Z,71.00
2022-09-21T18:02:23.049Z,70.87
2022-09-21T18:05:24.177Z,71.07
2022-09-21T18:08:10.374Z,71.12
2022-09-21T18:11:25.816Z,71.47
2022-09-21T18:14:32.082Z,71.01
2022-09-21T18:17:36.704Z,71.33
2022-09-21T18:20:35.654Z,72.09
2022-09-21T18:23:25.788Z,71.43
2022-09-21T18:26:16.667Z,71.83
2022-09-21T18:29:22.489Z,72.24
2022-09-21T18:32:28.826Z,72.23
2022-09-21T18:35:38.020Z,72.51
2022-09-21T18:38:42.054Z,72.16
2022-09-21T18:41:37.600Z,73.34
2022-09-21T18:44:42.653Z,72.99
2022-09-21T18:47:34.336Z,73.47
2022-09-21T18:50:30.104Z,73.22
2022-09-21T18:59:18.841Z,74.78
2022-09-21T19:02:14.202Z,74.23
2022-09-21T19:05:00.361Z,74.64
2022-09-21T19:08:01.868Z,75.24
2022-09-21T19:11:12.742Z,74.55
2022-09-21T19:14:36.509Z,74.63
2022-09-21T19:18:00.114Z,75.06
2022-09-21T19:21:16.701Z,74.85
2022-09-21T19:24:27.369Z,75.45
2022-09-21T19:27:33.166Z,75.01
2022-09-21T19:30:19.823Z,74.77
2022-09-21T19:33:48.457Z,74.78
2022-09-21T19:36:30.485Z,74.70
2022-09-21T19:39:17.080Z,74.39
2022-09-21T19:42:13.268Z,74.45
2022-09-21T19:45:22.309Z,74.58
2022-09-21T19:48:16.714Z,75.07
2022-09-21T19:51:33.903Z,74.66
2022-09-21T19:54:43.604Z,75.21
2022-09-21T19:57:48.055Z,74.44
2022-09-21T20:00:33.926Z,75.12
2022-09-21T20:03:31.494Z,74.74
2022-09-21T20:06:31.177Z,75.08
2022-09-21T20:09:27.002Z,74.85
2022-09-21T20:12:26.119Z,74.90
2022-09-21T20:15:17.680Z,75.00
2022-09-21T20:18:28.196Z,74.95
2022-09-21T20:21:17.385Z,74.99
2022-09-21T20:24:09.836Z,74.53
2022-09-21T20:26:55.606Z,75.41
2022-09-21T20:29:46.558Z,75.07
2022-09-21T20:32:33.237Z,74.86
2022-09-21T20:35:24.277Z,74.65
2022-09-21T20:38:14.905Z,75.12
2022-09-21T20:41:00.315Z,75.19
2022-09-21T20:43:45.846Z,74.58
2022-09-21T20:46:31.619Z,75.10
2022-09-21T20:49:17.572Z,74.85
2022-09-21T20:52:05.907Z,75.43
2022-09-21T20:54:51.507Z,75.02
2022-09-21T20:57:37.332Z,74.89
2022-09-21T21:00:22.830Z,75.33
2022-09-21T21:03:08.168Z,74.76
2022-09-21T21:05:53.650Z,74.79
2022-09-21T21:08:38.956Z,74.97
2022-09-21T21:11:25.896Z,75.17
2022-09-21T21:14:11.384Z,75.08
2022-09-21T21:16:56.902Z,75.14
2022-09-21T21:19:42.790Z,74.80
2022-09-21T21:22:28.057Z,75.06
2022-09-21T21:25:13.511Z,75.09
2022-09-21T21:27:59.783Z,74.90
2022-09-21T21:30:45.119Z,75.26
2022-09-21T21:33:30.998Z,75.15
2022-09-21T21:36:16.603Z,75.46
2022-09-21T21:39:02.206Z,75.15
2022-09-21T21:41:47.844Z,75.70
2022-09-21T21:44:32.832Z,75.08
2022-09-21T21:50:24.355Z,75.62
2022-09-21T21:53:09.904Z,75.37
2022-09-21T21:56:23.184Z,75.80
2022-09-21T21:59:08.526Z,75.72
2022-09-21T22:01:54.776Z,76.00
2022-09-21T22:04:40.686Z,75.84
2022-09-21T22:07:26.464Z,75.62
2022-09-21T22:10:11.931Z,75.78
2022-09-21T22:12:58.189Z,75.96
2022-09-21T22:15:44.591Z,76.25
2022-09-21T22:18:29.819Z,76.07
2022-09-21T22:21:26.484Z,76.18
2022-09-21T22:24:12.732Z,76.04
2022-09-21T22:26:58.216Z,76.27
2022-09-21T22:29:43.601Z,76.03
2022-09-21T22:32:29.266Z,76.23
2022-09-21T22:35:15.489Z,75.90
2022-09-21T22:38:01.654Z,76.10
2022-09-21T22:40:47.005Z,76.08
2022-09-21T22:43:34.111Z,76.37
2022-09-21T22:46:20.957Z,76.36
2022-09-21T22:49:06.614Z,76.28
2022-09-21T22:51:52.034Z,76.24
2022-09-21T22:54:37.376Z,76.39
2022-09-21T22:57:22.787Z,76.42
2022-09-21T23:00:09.028Z,76.65
2022-09-21T23:02:56.211Z,76.77
2022-09-21T23:05:41.664Z,76.77
2022-09-21T23:08:28.588Z,76.83
2022-09-21T23:11:17.364Z,76.99
2022-09-21T23:14:03.596Z,76.92
2022-09-21T23:16:49.393Z,77.03
2022-09-21T23:19:35.372Z,76.85
2022-09-21T23:22:20.699Z,77.00
2022-09-21T23:25:06.978Z,77.02
2022-09-21T23:27:53.478Z,77.12
2022-09-21T23:30:39.270Z,76.80
2022-09-21T23:33:24.810Z,76.62
2022-09-21T23:36:12.782Z,77.03
2022-09-21T23:38:59.269Z,76.76
2022-09-21T23:41:45.174Z,77.13
2022-09-21T23:44:30.660Z,77.20
2022-09-21T23:47:16.094Z,76.88
2022-09-21T23:50:01.633Z,77.21
2022-09-21T23:52:47.108Z,77.04
2022-09-21T23:55:32.495Z,77.20
2022-09-21T23:58:18.278Z,77.46
